00 100 18 Happy Fell — W — position and weather

sailwx.info

Track history (hours):
 
Tides and Currents Weather Stations Pressure Air Temp Water Temp Dewpoint Dewpoint Depression Visibility Wind Speed Wind Dir Waves Ship Positions

00 100 18 Happy Fell

Last reported at 2018-Jun-16 17:00 UTC. Time now 2018-Jun-18 13:38 UTC.
Position N 26°07' W 080°09'.

Length 24 m; draft 1.1 m.

Type: Cargo ship. MMSI: 243071215.

Date/timePositionNaut miles runAvg speedWind from/ knotsBaromVisibWave heightAir tempDewpointWater temp
2018-Jun-16 17:00N 26°07' W 080°09'4 1.7
2018-Jun-16 14:59N 26°04' W 080°08'0 0.0
2018-Jun-16 14:29N 26°04' W 080°08'0 0.0
2018-Jun-16 13:59N 26°04' W 080°08'105302222.4
2018-Jun-16 09:15N 31°59' E 120°27'1 2.3
2018-Jun-16 08:59N 31°58' E 120°27'0 0.1
2018-Jun-16 08:30N 31°58' E 120°27'10530361039.3
2018-Jun-16 08:28N 26°04' W 080°08'1053017814.4
2018-Jun-16 07:53N 31°58' E 120°27'0 0.3
2018-Jun-16 07:29N 31°58' E 120°27'1 1.1
2018-Jun-16 07:00N 31°58' E 120°27'0 0.1
2018-Jun-16 06:30N 31°58' E 120°27'0 0.0
2018-Jun-16 06:00N 31°58' E 120°27'0 0.0
2018-Jun-15 11:29N 31°58' E 120°27'0 0.8
2018-Jun-15 10:54N 31°58' E 120°27'0 0.0
2018-Jun-15 10:30N 31°58' E 120°27'0 0.0
2018-Jun-15 09:59N 31°58' E 120°27'0 0.0
2018-Jun-15 09:29N 31°58' E 120°27'0 0.0
2018-Jun-15 09:00N 31°58' E 120°27'0 0.0
2018-Jun-15 08:17N 31°58' E 120°27'0 1.1
2018-Jun-15 07:59N 31°58' E 120°27'0 0.5
2018-Jun-15 07:30N 31°59' E 120°27'  
2018-Jun-09 01:57N 01°17' E 103°39'1 1.7
2018-Jun-09 01:27N 01°17' E 103°40'208183.1
2018-Jun-08 00:25N 31°33' E 121°19'  
Track history (hours):
 
Tides and Currents Weather Stations Pressure Air Temp Water Temp Dewpoint Dewpoint Depression Visibility Wind Speed Wind Dir Waves Ship Positions

00 100 18 Happy Fell

Last reported at 2018-Jun-16 17:00 UTC. Time now 2018-Jun-18 13:38 UTC.
Position N 26°07' W 080°09'.

Length 24 m; draft 1.1 m.

Type: Cargo ship. MMSI: 243071215.

Date/timePositionNaut miles runAvg speedWind from/ knotsBaromVisibWave heightAir tempDewpointWater temp
2018-Jun-16 17:00N 26°07' W 080°09'4 1.7
2018-Jun-16 14:59N 26°04' W 080°08'0 0.0
2018-Jun-16 14:29N 26°04' W 080°08'0 0.0
2018-Jun-16 13:59N 26°04' W 080°08'105302222.4
2018-Jun-16 09:15N 31°59' E 120°27'1 2.3
2018-Jun-16 08:59N 31°58' E 120°27'0 0.1
2018-Jun-16 08:30N 31°58' E 120°27'10530361039.3
2018-Jun-16 08:28N 26°04' W 080°08'1053017814.4
2018-Jun-16 07:53N 31°58' E 120°27'0 0.3
2018-Jun-16 07:29N 31°58' E 120°27'1 1.1
2018-Jun-16 07:00N 31°58' E 120°27'0 0.1
2018-Jun-16 06:30N 31°58' E 120°27'0 0.0
2018-Jun-16 06:00N 31°58' E 120°27'0 0.0
2018-Jun-15 11:29N 31°58' E 120°27'0 0.8
2018-Jun-15 10:54N 31°58' E 120°27'0 0.0
2018-Jun-15 10:30N 31°58' E 120°27'0 0.0
2018-Jun-15 09:59N 31°58' E 120°27'0 0.0
2018-Jun-15 09:29N 31°58' E 120°27'0 0.0
2018-Jun-15 09:00N 31°58' E 120°27'0 0.0
2018-Jun-15 08:17N 31°58' E 120°27'0 1.1
2018-Jun-15 07:59N 31°58' E 120°27'0 0.5
2018-Jun-15 07:30N 31°59' E 120°27'  
2018-Jun-09 01:57N 01°17' E 103°39'1 1.7
2018-Jun-09 01:27N 01°17' E 103°40'208183.1
2018-Jun-08 00:25N 31°33' E 121°19'  

Dump ship's entire track history